createdAt,value
2023-05-02T00:01:20.418Z,15.00
2023-05-02T00:03:47.497Z,15.00
2023-05-02T00:06:14.567Z,14.90
2023-05-02T00:08:41.695Z,14.90
2023-05-02T00:11:08.595Z,14.80
2023-05-02T00:13:35.509Z,14.90
2023-05-02T00:16:02.341Z,14.80
2023-05-02T00:18:29.079Z,14.80
2023-05-02T00:20:56.811Z,14.80
2023-05-02T00:23:24.112Z,14.90
2023-05-02T00:25:51.060Z,14.70
2023-05-02T00:28:18.687Z,14.60
2023-05-02T00:30:46.066Z,14.70
2023-05-02T00:33:14.993Z,14.70
2023-05-02T00:35:42.147Z,14.60
2023-05-02T00:38:09.135Z,14.60
2023-05-02T00:40:51.159Z,14.60
2023-05-02T00:43:18.026Z,14.50
2023-05-02T00:45:46.283Z,14.50
2023-05-02T00:48:13.852Z,14.50
2023-05-02T00:50:42.816Z,14.50
2023-05-02T00:53:10.630Z,14.60
2023-05-02T00:55:37.830Z,14.60
2023-05-02T00:58:08.958Z,14.50
2023-05-02T01:01:03.003Z,14.50
2023-05-02T01:03:57.531Z,14.40
2023-05-02T01:06:29.695Z,14.40
2023-05-02T01:09:07.391Z,14.30
2023-05-02T01:11:51.146Z,14.40
2023-05-02T01:14:20.228Z,14.40
2023-05-02T01:16:48.575Z,14.30
2023-05-02T01:19:34.606Z,14.40
2023-05-02T01:22:06.114Z,14.40
2023-05-02T01:24:41.237Z,14.40
2023-05-02T01:27:32.612Z,13.20
2023-05-02T01:30:02.230Z,14.40
2023-05-02T01:32:34.987Z,14.40
2023-05-02T01:35:05.667Z,14.30
2023-05-02T01:37:34.087Z,14.30
2023-05-02T01:40:03.423Z,14.30
2023-05-02T01:42:32.438Z,14.30
2023-05-02T01:45:00.712Z,14.30
2023-05-02T01:47:29.806Z,14.30
2023-05-02T01:49:58.352Z,14.20
2023-05-02T01:52:27.477Z,14.20
2023-05-02T01:54:57.790Z,14.10
2023-05-02T01:57:25.337Z,14.20
2023-05-02T01:59:55.407Z,14.10
2023-05-02T02:02:24.506Z,14.10
2023-05-02T02:04:53.342Z,14.20
2023-05-02T02:07:20.667Z,14.20
2023-05-02T02:09:47.761Z,14.10
2023-05-02T02:12:28.308Z,14.10
2023-05-02T02:15:09.195Z,14.10
2023-05-02T02:17:49.605Z,14.10
2023-05-02T02:20:17.784Z,14.10
2023-05-02T02:22:45.762Z,14.10
2023-05-02T02:25:16.141Z,14.10
2023-05-02T02:27:43.276Z,14.00
2023-05-02T02:30:11.164Z,14.10
2023-05-02T02:32:38.111Z,14.00
2023-05-02T02:35:05.670Z,14.00
2023-05-02T02:37:37.709Z,14.00
2023-05-02T02:40:23.373Z,14.00
2023-05-02T02:43:05.397Z,14.00
2023-05-02T02:46:03.228Z,14.00
2023-05-02T02:48:59.503Z,14.00
2023-05-02T02:51:32.914Z,13.90
2023-05-02T02:54:35.529Z,13.80
2023-05-02T02:57:26.883Z,13.90
2023-05-02T03:00:16.114Z,13.90
2023-05-02T03:02:46.682Z,13.90
2023-05-02T03:05:14.174Z,13.90
2023-05-02T03:07:41.488Z,13.80
2023-05-02T03:10:09.057Z,13.80
2023-05-02T03:12:35.923Z,13.90
2023-05-02T03:15:25.531Z,13.90
2023-05-02T03:17:52.356Z,13.90
2023-05-02T03:20:19.323Z,13.80
2023-05-02T03:22:46.418Z,13.80
2023-05-02T03:25:13.235Z,13.80
2023-05-02T03:27:39.976Z,13.90
2023-05-02T03:30:07.634Z,13.90
2023-05-02T03:32:34.454Z,14.00
2023-05-02T03:35:01.192Z,13.90
2023-05-02T03:37:28.055Z,13.90
2023-05-02T03:39:55.717Z,13.90
2023-05-02T03:42:22.674Z,13.90
2023-05-02T03:44:52.841Z,14.00
2023-05-02T03:47:19.825Z,14.00
2023-05-02T03:49:46.888Z,14.00
2023-05-02T03:52:13.774Z,14.10
2023-05-02T03:54:40.586Z,14.10
2023-05-02T03:57:08.072Z,14.00
2023-05-02T03:59:35.407Z,14.10
2023-05-02T04:02:02.311Z,15.10
2023-05-02T04:04:29.228Z,13.90
2023-05-02T04:06:56.083Z,13.90
2023-05-02T04:09:25.396Z,13.90
2023-05-02T04:11:52.529Z,13.90
2023-05-02T04:14:19.374Z,14.00
2023-05-02T04:16:52.845Z,14.00
2023-05-02T04:19:19.951Z,14.00
2023-05-02T04:21:46.729Z,14.10
2023-05-02T04:24:14.072Z,14.00
2023-05-02T04:26:41.789Z,13.90
2023-05-02T04:29:08.701Z,13.90
2023-05-02T04:31:36.202Z,13.90
2023-05-02T04:34:04.454Z,13.90
2023-05-02T04:36:31.376Z,13.90
2023-05-02T04:38:58.511Z,13.90
2023-05-02T04:41:25.451Z,13.90
2023-05-02T04:43:52.337Z,14.00
2023-05-02T04:46:19.261Z,14.00
2023-05-02T04:48:46.230Z,14.00
2023-05-02T04:51:14.867Z,13.90
2023-05-02T04:53:43.257Z,14.00
2023-05-02T04:56:11.325Z,14.00
2023-05-02T04:58:38.154Z,13.90
2023-05-02T05:01:05.082Z,13.80
2023-05-02T05:03:33.364Z,14.00
2023-05-02T05:06:00.381Z,13.80
2023-05-02T05:08:27.499Z,14.20
2023-05-02T05:10:54.554Z,14.10
2023-05-02T05:13:21.279Z,14.10
2023-05-02T05:15:48.243Z,14.20
2023-05-02T05:18:15.360Z,14.10
2023-05-02T05:20:42.170Z,14.20
2023-05-02T05:23:08.913Z,14.20
2023-05-02T05:25:35.757Z,14.30
2023-05-02T05:28:03.770Z,14.30
2023-05-02T05:30:31.252Z,14.20
2023-05-02T05:33:00.819Z,14.20
2023-05-02T05:35:27.652Z,14.30
2023-05-02T05:37:54.361Z,14.30
2023-05-02T05:40:21.628Z,14.30
2023-05-02T05:42:48.502Z,14.30
2023-05-02T05:45:17.283Z,14.30
2023-05-02T05:47:44.209Z,14.20
2023-05-02T05:50:11.360Z,14.20
2023-05-02T05:52:38.211Z,14.20
2023-05-02T05:55:05.829Z,14.20
2023-05-02T05:57:32.704Z,14.30
2023-05-02T05:59:59.764Z,14.40
2023-05-02T06:02:26.903Z,14.40
2023-05-02T06:04:54.230Z,14.40
2023-05-02T06:07:21.209Z,14.40
2023-05-02T06:09:47.952Z,14.30
2023-05-02T06:12:16.545Z,14.40
2023-05-02T06:14:43.664Z,14.50
2023-05-02T06:17:10.500Z,14.40
2023-05-02T06:19:37.354Z,14.40
2023-05-02T06:22:07.717Z,14.40
2023-05-02T06:24:34.785Z,15.50
2023-05-02T06:27:02.478Z,14.50
2023-05-02T06:29:29.278Z,14.50
2023-05-02T06:31:57.234Z,14.50
2023-05-02T06:34:24.278Z,14.40
2023-05-02T06:36:56.814Z,14.40
2023-05-02T06:39:23.727Z,14.50
2023-05-02T06:41:50.903Z,14.50
2023-05-02T06:44:17.759Z,14.60
2023-05-02T06:46:44.789Z,14.60
2023-05-02T06:49:11.895Z,14.60
2023-05-02T06:51:38.882Z,14.70
2023-05-02T06:54:06.339Z,14.80
2023-05-02T06:56:33.235Z,14.80
2023-05-02T06:59:00.034Z,14.80
2023-05-02T07:01:27.177Z,14.90
2023-05-02T07:03:54.554Z,14.90
2023-05-02T07:06:22.018Z,14.90
2023-05-02T07:08:49.030Z,14.80
2023-05-02T07:11:16.196Z,14.80
2023-05-02T07:13:43.671Z,14.80
2023-05-02T07:16:10.754Z,14.90
2023-05-02T07:18:37.778Z,15.00
2023-05-02T07:21:05.619Z,15.00
2023-05-02T07:23:32.558Z,15.10
2023-05-02T07:25:59.351Z,15.20
2023-05-02T07:28:26.119Z,15.20
2023-05-02T07:30:52.885Z,15.20
2023-05-02T07:33:19.916Z,15.20
2023-05-02T07:35:46.955Z,15.20
2023-05-02T07:38:13.822Z,15.20
2023-05-02T07:40:40.610Z,15.20
2023-05-02T07:43:09.334Z,15.20
2023-05-02T07:45:38.003Z,15.10
2023-05-02T07:48:05.005Z,15.20
2023-05-02T07:50:31.954Z,15.30
2023-05-02T07:52:58.851Z,15.30
2023-05-02T07:55:26.602Z,15.30
2023-05-02T07:57:53.770Z,15.30
2023-05-02T08:00:21.184Z,15.30
2023-05-02T08:02:48.215Z,15.40
2023-05-02T08:05:15.215Z,15.40
2023-05-02T08:07:42.699Z,15.40
2023-05-02T08:10:10.477Z,15.40
2023-05-02T08:12:41.763Z,15.50
2023-05-02T08:15:11.719Z,15.50
2023-05-02T08:17:38.801Z,15.50
2023-05-02T08:20:06.215Z,15.50
2023-05-02T08:22:32.962Z,15.60
2023-05-02T08:24:59.820Z,15.60
2023-05-02T08:27:26.684Z,15.60
2023-05-02T08:29:53.702Z,15.60
2023-05-02T08:32:20.903Z,15.60
2023-05-02T08:34:47.892Z,15.70
2023-05-02T08:37:14.811Z,15.80
2023-05-02T08:39:41.648Z,15.80
2023-05-02T08:42:08.638Z,15.90
2023-05-02T08:44:35.582Z,16.00
2023-05-02T08:47:03.457Z,15.90
2023-05-02T08:49:32.906Z,15.90
2023-05-02T08:52:00.424Z,16.00
2023-05-02T08:54:27.515Z,16.10
2023-05-02T08:56:55.007Z,16.10
2023-05-02T08:59:22.146Z,16.10
2023-05-02T09:01:52.560Z,16.10
2023-05-02T09:04:24.676Z,16.20
2023-05-02T09:06:52.073Z,16.30
2023-05-02T09:09:19.512Z,16.30
2023-05-02T09:11:47.990Z,16.30
2023-05-02T09:14:16.915Z,16.40
2023-05-02T09:16:44.599Z,16.40
2023-05-02T09:19:23.627Z,16.50
2023-05-02T09:21:50.728Z,16.50
2023-05-02T09:24:22.264Z,16.50
2023-05-02T09:27:05.738Z,16.60
2023-05-02T09:29:38.012Z,16.70
2023-05-02T09:32:07.929Z,16.70
2023-05-02T09:34:37.466Z,16.70
2023-05-02T09:37:05.637Z,16.30
2023-05-02T09:39:32.509Z,16.90
2023-05-02T09:41:59.816Z,16.90
2023-05-02T09:44:36.165Z,17.00
2023-05-02T09:47:03.032Z,17.00
2023-05-02T09:49:47.043Z,16.90
2023-05-02T09:52:19.980Z,16.90
2023-05-02T09:54:47.551Z,16.90
2023-05-02T09:57:14.490Z,16.90
2023-05-02T09:59:41.752Z,17.00
2023-05-02T10:02:11.589Z,17.10
2023-05-02T10:04:39.422Z,17.00
2023-05-02T10:07:10.599Z,17.10
2023-05-02T10:09:42.687Z,17.20
2023-05-02T10:12:09.934Z,17.20
2023-05-02T10:14:41.769Z,17.20
2023-05-02T10:17:13.600Z,17.30
2023-05-02T10:19:57.621Z,17.30
2023-05-02T10:22:25.652Z,17.30
2023-05-02T10:24:53.693Z,17.30
2023-05-02T10:27:21.432Z,17.30
2023-05-02T10:29:49.264Z,17.30
2023-05-02T10:32:18.639Z,17.30
2023-05-02T10:34:47.766Z,17.40
2023-05-02T10:37:16.105Z,17.50
2023-05-02T10:39:43.122Z,17.50
2023-05-02T10:42:10.683Z,17.60
2023-05-02T10:44:41.545Z,17.60
2023-05-02T10:47:25.272Z,17.70
2023-05-02T10:49:54.991Z,17.70
2023-05-02T10:52:34.114Z,17.80
2023-05-02T10:55:21.315Z,17.80
2023-05-02T10:57:57.797Z,17.90
2023-05-02T11:00:27.094Z,17.90
2023-05-02T11:02:54.214Z,17.90
2023-05-02T11:05:24.129Z,18.00
2023-05-02T11:08:11.444Z,18.00
2023-05-02T11:10:38.318Z,18.10
2023-05-02T11:13:05.172Z,18.10
2023-05-02T11:15:33.475Z,18.10
2023-05-02T11:18:03.930Z,18.10
2023-05-02T11:20:32.231Z,18.20
2023-05-02T11:23:26.254Z,18.20
2023-05-02T11:25:57.575Z,18.30
2023-05-02T11:28:45.988Z,18.40
2023-05-02T11:31:28.196Z,18.40
2023-05-02T11:33:59.632Z,18.40
2023-05-02T11:36:35.932Z,18.40
2023-05-02T11:39:05.853Z,18.40
2023-05-02T11:41:40.434Z,18.30
2023-05-02T11:44:08.176Z,18.20
2023-05-02T11:46:39.157Z,18.00
2023-05-02T11:49:09.641Z,17.90
2023-05-02T11:51:37.714Z,17.80
2023-05-02T11:54:07.711Z,17.70
2023-05-02T11:56:34.852Z,17.60
2023-05-02T11:59:03.536Z,17.60
2023-05-02T12:01:31.101Z,17.50
2023-05-02T12:04:08.757Z,17.70
2023-05-02T12:06:36.225Z,17.80
2023-05-02T12:09:20.336Z,17.80
2023-05-02T12:11:52.784Z,17.90
2023-05-02T12:14:32.892Z,18.00
2023-05-02T12:17:01.830Z,18.10
2023-05-02T12:19:29.080Z,18.10
2023-05-02T12:21:56.240Z,18.20
2023-05-02T12:24:23.188Z,18.20
2023-05-02T12:26:51.247Z,18.30
2023-05-02T12:29:19.516Z,18.40
2023-05-02T12:31:52.838Z,18.50
2023-05-02T12:34:33.619Z,18.50
2023-05-02T12:37:01.028Z,18.50
2023-05-02T12:39:42.329Z,18.50
2023-05-02T12:42:11.840Z,18.50
2023-05-02T12:44:40.790Z,18.40
2023-05-02T12:47:09.081Z,18.40
2023-05-02T12:49:52.159Z,18.40
2023-05-02T12:52:20.232Z,18.40
2023-05-02T12:54:47.337Z,18.40
2023-05-02T12:57:27.002Z,18.30
2023-05-02T12:59:57.066Z,18.30
2023-05-02T13:02:24.036Z,18.30
2023-05-02T13:04:51.494Z,18.20
2023-05-02T13:07:18.378Z,18.20
2023-05-02T13:09:45.217Z,18.20
2023-05-02T13:12:12.729Z,18.20
2023-05-02T13:14:39.722Z,18.10
2023-05-02T13:17:08.767Z,18.10
2023-05-02T13:19:37.373Z,18.10
2023-05-02T13:22:05.779Z,18.00
2023-05-02T13:24:32.693Z,18.00
2023-05-02T13:26:59.725Z,18.00
2023-05-02T13:29:26.507Z,17.90
2023-05-02T13:31:53.276Z,17.90
2023-05-02T13:34:20.338Z,17.90
2023-05-02T13:36:47.132Z,17.90
2023-05-02T13:39:14.136Z,17.90
2023-05-02T13:41:41.519Z,17.90
2023-05-02T13:44:09.520Z,17.90
2023-05-02T13:46:37.741Z,17.90
2023-05-02T13:49:04.988Z,18.00
2023-05-02T13:51:35.060Z,18.00
2023-05-02T13:54:02.006Z,18.10
2023-05-02T13:56:29.114Z,18.00
2023-05-02T13:58:56.084Z,18.10
2023-05-02T14:01:23.352Z,18.00
2023-05-02T14:03:50.674Z,18.10
2023-05-02T14:06:18.204Z,18.10
2023-05-02T14:08:45.480Z,18.10
2023-05-02T14:11:12.480Z,18.10
2023-05-02T14:13:39.308Z,18.10
2023-05-02T14:16:06.644Z,18.00
2023-05-02T14:18:33.654Z,18.00
2023-05-02T14:21:00.480Z,18.00
2023-05-02T14:23:30.307Z,18.10
2023-05-02T14:25:57.350Z,18.00
2023-05-02T14:28:24.150Z,18.10
2023-05-02T14:30:51.303Z,18.10
2023-05-02T14:33:18.190Z,18.20
2023-05-02T14:35:45.000Z,18.30
2023-05-02T14:38:11.947Z,18.30
2023-05-02T14:40:38.728Z,18.30
2023-05-02T14:43:06.059Z,18.30
2023-05-02T14:45:33.019Z,18.30
2023-05-02T14:47:59.878Z,18.40
2023-05-02T14:50:27.129Z,18.40
2023-05-02T14:52:54.045Z,18.40
2023-05-02T14:55:20.829Z,18.50
2023-05-02T14:57:48.074Z,18.50
2023-05-02T15:00:16.105Z,18.60
2023-05-02T15:02:43.062Z,18.60
2023-05-02T15:05:12.521Z,18.60
2023-05-02T15:07:39.854Z,18.60
2023-05-02T15:10:07.207Z,18.60
2023-05-02T15:12:33.986Z,18.60
2023-05-02T15:15:00.746Z,18.70
2023-05-02T15:17:27.510Z,18.70
2023-05-02T15:19:56.390Z,18.60
2023-05-02T15:22:26.117Z,18.60
2023-05-02T15:24:53.072Z,18.60
2023-05-02T15:27:20.176Z,18.60
2023-05-02T15:29:47.000Z,18.60
2023-05-02T15:32:14.023Z,18.60
2023-05-02T15:34:41.048Z,18.60
2023-05-02T15:37:08.228Z,18.60
2023-05-02T15:39:35.093Z,18.70
2023-05-02T15:42:06.755Z,18.70
2023-05-02T15:44:36.370Z,18.60
2023-05-02T15:47:03.532Z,18.30
2023-05-02T15:49:33.038Z,18.60
2023-05-02T15:52:00.270Z,18.60
2023-05-02T15:54:27.453Z,18.60
2023-05-02T15:56:54.204Z,18.60
2023-05-02T15:59:21.843Z,18.60
2023-05-02T16:01:48.833Z,18.70
2023-05-02T16:04:15.779Z,18.70
2023-05-02T16:06:42.782Z,18.70
2023-05-02T16:09:10.204Z,18.70
2023-05-02T16:11:37.131Z,18.70
2023-05-02T16:14:04.069Z,18.70
2023-05-02T16:16:31.090Z,18.60
2023-05-02T16:18:58.049Z,18.60
2023-05-02T16:21:24.858Z,18.60
2023-05-02T16:23:51.857Z,18.50
2023-05-02T16:26:18.663Z,18.50
2023-05-02T16:28:46.254Z,18.50
2023-05-02T16:31:15.048Z,18.50
2023-05-02T16:33:42.895Z,18.50
2023-05-02T16:36:10.258Z,18.50
2023-05-02T16:38:36.994Z,18.50
2023-05-02T16:41:05.582Z,18.40
2023-05-02T16:43:32.928Z,18.40
2023-05-02T16:46:04.417Z,18.40
2023-05-02T16:48:31.820Z,18.40
2023-05-02T16:51:01.655Z,18.40
2023-05-02T16:53:31.001Z,18.40
2023-05-02T16:55:59.489Z,18.30
2023-05-02T16:58:28.919Z,18.30
2023-05-02T17:00:56.270Z,18.40
2023-05-02T17:03:23.281Z,18.30
2023-05-02T17:05:50.269Z,18.40
2023-05-02T17:08:17.119Z,18.40
2023-05-02T17:10:49.439Z,18.30
2023-05-02T17:13:16.352Z,18.30
2023-05-02T17:15:43.450Z,18.40
2023-05-02T17:18:11.668Z,18.30
2023-05-02T17:20:38.674Z,18.30
2023-05-02T17:23:05.652Z,18.30
2023-05-02T17:25:32.772Z,18.30
2023-05-02T17:27:59.519Z,18.30
2023-05-02T17:30:26.353Z,18.30
2023-05-02T17:32:53.163Z,18.30
2023-05-02T17:35:20.022Z,18.20
2023-05-02T17:37:46.834Z,18.30
2023-05-02T17:40:13.910Z,18.30
2023-05-02T17:42:43.847Z,18.30
2023-05-02T17:45:11.109Z,18.30
2023-05-02T17:47:38.044Z,18.30
2023-05-02T17:50:05.752Z,18.30
2023-05-02T17:52:34.414Z,18.30
2023-05-02T17:55:02.064Z,18.30
2023-05-02T17:57:29.058Z,18.30
2023-05-02T17:59:59.613Z,18.30
2023-05-02T18:02:30.149Z,18.40
2023-05-02T18:04:58.965Z,18.40
2023-05-02T18:07:29.033Z,18.40
2023-05-02T18:10:02.227Z,18.40
2023-05-02T18:12:29.434Z,18.30
2023-05-02T18:14:56.328Z,18.30
2023-05-02T18:17:24.054Z,18.30
2023-05-02T18:19:50.924Z,18.30
2023-05-02T18:22:20.171Z,18.20
2023-05-02T18:24:47.852Z,18.20
2023-05-02T18:27:15.135Z,18.20
2023-05-02T18:29:42.151Z,18.20
2023-05-02T18:32:09.301Z,18.10
2023-05-02T18:34:38.454Z,18.20
2023-05-02T18:37:06.961Z,18.20
2023-05-02T18:39:34.383Z,18.10
2023-05-02T18:42:04.685Z,18.10
2023-05-02T18:44:31.861Z,18.10
2023-05-02T18:46:58.783Z,18.00
2023-05-02T18:49:26.344Z,18.00
2023-05-02T18:51:54.492Z,17.90
2023-05-02T18:54:23.273Z,17.90
2023-05-02T18:56:50.466Z,17.90
2023-05-02T18:59:19.130Z,17.90
2023-05-02T19:01:48.304Z,17.90
2023-05-02T19:04:15.336Z,17.80
2023-05-02T19:06:42.462Z,17.70
2023-05-02T19:09:09.392Z,17.60
2023-05-02T19:11:38.556Z,17.60
2023-05-02T19:14:05.808Z,17.50
2023-05-02T19:16:35.006Z,17.50
2023-05-02T19:19:02.313Z,17.50
2023-05-02T19:21:29.200Z,17.40
2023-05-02T19:23:56.748Z,17.30
2023-05-02T19:26:23.852Z,17.30
2023-05-02T19:28:50.660Z,17.20
2023-05-02T19:31:20.096Z,17.20
2023-05-02T19:33:51.716Z,17.10
2023-05-02T19:36:23.503Z,17.10
2023-05-02T19:38:55.033Z,17.10
2023-05-02T19:41:24.709Z,17.00
2023-05-02T19:43:52.331Z,16.90
2023-05-02T19:46:19.576Z,16.90
2023-05-02T19:48:46.494Z,16.80
2023-05-02T19:51:13.555Z,16.80
2023-05-02T19:53:40.326Z,16.80
2023-05-02T19:56:07.398Z,16.70
2023-05-02T19:58:34.538Z,16.70
2023-05-02T20:01:01.327Z,16.60
2023-05-02T20:03:28.412Z,16.60
2023-05-02T20:05:57.424Z,16.60
2023-05-02T20:08:27.562Z,16.60
2023-05-02T20:10:55.785Z,16.60
2023-05-02T20:13:22.697Z,16.50
2023-05-02T20:15:51.157Z,16.60
2023-05-02T20:18:18.224Z,16.60
2023-05-02T20:20:45.764Z,16.70
2023-05-02T20:23:13.546Z,16.70
2023-05-02T20:25:41.900Z,16.70
2023-05-02T20:28:09.544Z,16.70
2023-05-02T20:30:36.506Z,16.60
2023-05-02T20:33:14.036Z,16.60
2023-05-02T20:35:42.696Z,16.60
2023-05-02T20:38:09.923Z,16.50
2023-05-02T20:40:39.862Z,16.50
2023-05-02T20:43:06.728Z,16.50
2023-05-02T20:45:33.564Z,16.50
2023-05-02T20:48:00.477Z,16.50
2023-05-02T20:50:28.399Z,16.50
2023-05-02T20:52:55.312Z,16.40
2023-05-02T20:55:23.006Z,16.30
2023-05-02T20:57:53.378Z,16.30
2023-05-02T21:00:23.726Z,16.40
2023-05-02T21:02:50.675Z,16.40
2023-05-02T21:05:17.821Z,16.30
2023-05-02T21:07:45.036Z,16.20
2023-05-02T21:10:12.029Z,16.20
2023-05-02T21:12:39.492Z,16.20
2023-05-02T21:15:07.804Z,16.20
2023-05-02T21:17:34.789Z,16.20
2023-05-02T21:20:02.206Z,16.10
2023-05-02T21:22:29.382Z,16.10
2023-05-02T21:24:56.196Z,16.00
2023-05-02T21:27:23.099Z,16.00
2023-05-02T21:29:50.033Z,15.90
2023-05-02T21:32:16.828Z,15.90
2023-05-02T21:34:43.652Z,15.80
2023-05-02T21:37:10.449Z,15.90
2023-05-02T21:39:38.742Z,15.90
2023-05-02T21:42:05.618Z,15.90
2023-05-02T21:44:32.532Z,15.80
2023-05-02T21:46:59.419Z,15.70
2023-05-02T21:49:28.625Z,15.60
2023-05-02T21:51:55.501Z,15.60
2023-05-02T21:54:22.535Z,15.60
2023-05-02T21:56:49.259Z,15.60
2023-05-02T21:59:15.969Z,15.50
2023-05-02T22:01:43.216Z,15.50
2023-05-02T22:04:10.157Z,15.50
2023-05-02T22:06:37.437Z,15.40
2023-05-02T22:09:05.045Z,15.30
2023-05-02T22:11:32.429Z,15.30
2023-05-02T22:13:59.202Z,15.30
2023-05-02T22:16:26.503Z,15.20
2023-05-02T22:18:53.341Z,15.30
2023-05-02T22:21:20.349Z,15.30
2023-05-02T22:23:47.156Z,15.20
2023-05-02T22:26:14.015Z,15.20
2023-05-02T22:28:40.799Z,15.20
2023-05-02T22:31:07.619Z,15.20
2023-05-02T22:33:34.513Z,15.10
2023-05-02T22:36:01.287Z,15.10
2023-05-02T22:38:28.113Z,15.00
2023-05-02T22:40:55.012Z,14.90
2023-05-02T22:43:21.797Z,14.80
2023-05-02T22:45:51.252Z,14.80
2023-05-02T22:48:18.458Z,15.00
2023-05-02T22:50:48.790Z,14.90
2023-05-02T22:53:15.746Z,14.90
2023-05-02T22:55:42.836Z,14.80
2023-05-02T22:58:09.635Z,14.80
2023-05-02T23:00:36.589Z,14.70
2023-05-02T23:03:03.722Z,14.60
2023-05-02T23:05:30.786Z,14.50
2023-05-02T23:07:58.159Z,14.40
2023-05-02T23:10:25.123Z,14.40
2023-05-02T23:12:52.056Z,15.40
2023-05-02T23:15:18.985Z,14.40
2023-05-02T23:17:45.802Z,14.40
2023-05-02T23:20:12.820Z,14.40
2023-05-02T23:22:46.472Z,14.40
2023-05-02T23:25:14.273Z,14.40
2023-05-02T23:27:41.087Z,14.40
2023-05-02T23:30:08.963Z,14.30
2023-05-02T23:32:36.710Z,14.30
2023-05-02T23:35:05.791Z,14.30
2023-05-02T23:37:33.095Z,14.20
2023-05-02T23:40:01.044Z,14.20
2023-05-02T23:42:32.071Z,14.20
2023-05-02T23:44:58.900Z,14.20
2023-05-02T23:47:28.796Z,14.10
2023-05-02T23:49:56.501Z,14.10
2023-05-02T23:52:23.260Z,14.00
2023-05-02T23:54:50.586Z,14.10
2023-05-02T23:57:17.343Z,14.10
2023-05-02T23:59:44.353Z,14.10
